createdAt,value
2023-02-05T00:00:19.250Z,0.48
2023-02-05T00:03:06.830Z,0.47
2023-02-05T00:05:34.668Z,0.45
2023-02-05T00:08:02.662Z,0.50
2023-02-05T00:10:29.983Z,0.49
2023-02-05T00:12:57.630Z,0.43
2023-02-05T00:15:25.018Z,0.41
2023-02-05T00:17:52.599Z,0.34
2023-02-05T00:20:19.962Z,0.40
2023-02-05T00:22:47.540Z,0.47
2023-02-05T00:25:14.880Z,0.44
2023-02-05T00:27:42.514Z,0.34
2023-02-05T00:30:10.685Z,0.42
2023-02-05T00:32:38.277Z,0.42
2023-02-05T00:35:06.055Z,0.44
2023-02-05T00:37:33.669Z,0.46
2023-02-05T00:40:01.052Z,0.49
2023-02-05T00:42:28.693Z,0.45
2023-02-05T00:44:56.046Z,0.53
2023-02-05T00:47:23.739Z,0.53
2023-02-05T00:49:51.024Z,0.48
2023-02-05T00:52:18.879Z,0.51
2023-02-05T00:54:46.318Z,0.69
2023-02-05T00:57:13.923Z,0.63
2023-02-05T00:59:41.181Z,0.61
2023-02-05T01:02:08.763Z,0.69
2023-02-05T01:04:36.024Z,0.65
2023-02-05T01:07:03.620Z,0.68
2023-02-05T01:09:30.966Z,0.75
2023-02-05T01:12:00.047Z,0.77
2023-02-05T01:14:27.331Z,0.80
2023-02-05T01:16:54.985Z,0.83
2023-02-05T01:19:22.256Z,0.81
2023-02-05T01:21:49.862Z,0.78
2023-02-05T01:24:17.102Z,0.74
2023-02-05T01:26:44.876Z,0.70
2023-02-05T01:29:12.163Z,0.71
2023-02-05T01:31:39.833Z,0.73
2023-02-05T01:34:07.149Z,0.77
2023-02-05T01:36:34.834Z,0.79
2023-02-05T01:39:02.147Z,0.71
2023-02-05T01:41:29.920Z,0.77
2023-02-05T01:44:18.838Z,0.73
2023-02-05T01:46:48.437Z,0.79
2023-02-05T01:49:35.481Z,0.80
2023-02-05T01:52:16.054Z,0.58
2023-02-05T01:54:49.250Z,0.66
2023-02-05T01:57:26.144Z,0.71
2023-02-05T01:59:53.537Z,0.69
2023-02-05T02:02:21.157Z,0.66
2023-02-05T02:04:55.294Z,0.70
2023-02-05T02:07:25.034Z,0.68
2023-02-05T02:09:54.481Z,0.68
2023-02-05T02:12:28.381Z,0.62
2023-02-05T02:15:03.622Z,0.73
2023-02-05T02:17:39.285Z,0.83
2023-02-05T02:20:22.513Z,0.82
2023-02-05T02:22:56.230Z,0.80
2023-02-05T02:26:01.298Z,0.75
2023-02-05T02:28:50.669Z,0.74
2023-02-05T02:31:40.145Z,0.79
2023-02-05T02:34:45.123Z,0.71
2023-02-05T02:37:44.130Z,0.70
2023-02-05T02:40:52.325Z,0.66
2023-02-05T02:43:27.639Z,0.65
2023-02-05T02:46:17.198Z,0.59
2023-02-05T02:48:48.032Z,0.48
2023-02-05T02:51:20.599Z,0.32
2023-02-05T02:53:54.471Z,0.20
2023-02-05T02:56:27.842Z,0.20
2023-02-05T02:59:03.611Z,0.11
2023-02-05T03:01:35.131Z,0.06
2023-02-05T03:04:17.671Z,0.02
2023-02-05T03:06:51.968Z,-0.02
2023-02-05T03:09:29.274Z,-0.07
2023-02-05T03:11:56.851Z,-0.13
2023-02-05T03:14:24.397Z,-0.15
2023-02-05T03:16:53.788Z,-0.11
2023-02-05T03:19:21.243Z,-0.11
2023-02-05T03:21:56.667Z,-0.10
2023-02-05T03:24:24.966Z,-0.06
2023-02-05T03:26:52.672Z,-0.07
2023-02-05T03:29:33.047Z,-0.02
2023-02-05T03:32:43.732Z,0.03
2023-02-05T03:35:24.791Z,0.07
2023-02-05T03:38:46.795Z,-0.02
2023-02-05T03:41:53.428Z,0.00
2023-02-05T03:44:46.589Z,-0.05
2023-02-05T03:47:58.238Z,-0.26
2023-02-05T03:50:50.608Z,-0.40
2023-02-05T03:53:27.956Z,-0.50
2023-02-05T03:56:13.843Z,-0.60
2023-02-05T03:58:48.216Z,-0.58
2023-02-05T04:01:17.163Z,-0.61
2023-02-05T04:03:44.989Z,-0.67
2023-02-05T04:06:12.947Z,-0.67
2023-02-05T04:08:40.483Z,-0.69
2023-02-05T04:11:08.104Z,-0.68
2023-02-05T04:13:35.406Z,-0.69
2023-02-05T04:16:03.015Z,-0.73
2023-02-05T04:18:30.399Z,-0.72
2023-02-05T04:20:59.174Z,-0.73
2023-02-05T04:23:26.585Z,-0.76
2023-02-05T04:25:55.280Z,-0.76
2023-02-05T04:28:22.699Z,-0.76
2023-02-05T04:30:50.351Z,-0.80
2023-02-05T04:33:18.706Z,-0.82
2023-02-05T04:35:46.518Z,-0.86
2023-02-05T04:38:13.779Z,-0.89
2023-02-05T04:40:41.418Z,-0.90
2023-02-05T04:43:08.679Z,-0.93
2023-02-05T04:45:36.662Z,-0.97
2023-02-05T04:48:06.721Z,-0.97
2023-02-05T04:50:34.836Z,-1.02
2023-02-05T04:53:03.322Z,-1.06
2023-02-05T04:55:32.253Z,-1.08
2023-02-05T04:57:59.734Z,-1.09
2023-02-05T05:00:27.737Z,-1.08
2023-02-05T05:02:55.084Z,-1.06
2023-02-05T05:05:22.926Z,-1.11
2023-02-05T05:07:50.227Z,-1.08
2023-02-05T05:10:17.890Z,-1.11
2023-02-05T05:12:45.217Z,-1.07
2023-02-05T05:15:12.923Z,-1.04
2023-02-05T05:17:40.326Z,-1.05
2023-02-05T05:20:08.654Z,-1.10
2023-02-05T05:22:35.940Z,-1.15
2023-02-05T05:25:03.549Z,-1.28
2023-02-05T05:27:30.848Z,-1.39
2023-02-05T05:29:58.474Z,-1.60
2023-02-05T05:32:25.792Z,-1.72
2023-02-05T05:34:53.400Z,-1.76
2023-02-05T05:37:20.657Z,-1.78
2023-02-05T05:40:06.563Z,-1.78
2023-02-05T05:42:52.465Z,-1.81
2023-02-05T05:45:20.103Z,-1.79
2023-02-05T05:47:47.441Z,-1.83
2023-02-05T05:50:15.431Z,-1.81
2023-02-05T05:52:42.765Z,-1.83
2023-02-05T05:55:10.541Z,-1.81
2023-02-05T05:57:37.892Z,-1.80
2023-02-05T06:00:06.691Z,-1.79
2023-02-05T06:02:39.108Z,-1.74
2023-02-05T06:05:07.336Z,-1.79
2023-02-05T06:07:34.642Z,-1.81
2023-02-05T06:10:02.368Z,-1.82
2023-02-05T06:12:29.637Z,-1.88
2023-02-05T06:14:57.238Z,-1.91
2023-02-05T06:17:24.505Z,-1.91
2023-02-05T06:19:52.083Z,-1.90
2023-02-05T06:22:19.555Z,-1.86
2023-02-05T06:24:47.205Z,-1.86
2023-02-05T06:27:14.452Z,-1.81
2023-02-05T06:29:42.005Z,-1.82
2023-02-05T06:32:09.297Z,-1.76
2023-02-05T06:34:37.011Z,-1.70
2023-02-05T06:37:04.381Z,-1.69
2023-02-05T06:39:32.046Z,-1.71
2023-02-05T06:41:59.358Z,-1.62
2023-02-05T06:44:27.062Z,-1.51
2023-02-05T06:46:54.343Z,-1.40
2023-02-05T06:49:22.118Z,-1.27
2023-02-05T06:51:49.444Z,-1.12
2023-02-05T06:54:17.390Z,-0.95
2023-02-05T06:56:44.941Z,-0.75
2023-02-05T06:59:12.519Z,-0.62
2023-02-05T07:01:39.950Z,-0.46
2023-02-05T07:04:07.655Z,-0.38
2023-02-05T07:06:35.037Z,-0.38
2023-02-05T07:09:02.810Z,-0.36
2023-02-05T07:11:30.311Z,-0.35
2023-02-05T07:14:01.155Z,-0.35
2023-02-05T07:16:30.473Z,-0.26
2023-02-05T07:18:59.025Z,-0.28
2023-02-05T07:21:26.305Z,-0.21
2023-02-05T07:23:54.048Z,-0.11
2023-02-05T07:26:21.461Z,-0.09
2023-02-05T07:28:49.126Z,0.24
2023-02-05T07:31:19.649Z,0.63
2023-02-05T07:33:48.550Z,1.09
2023-02-05T07:36:18.886Z,1.52
2023-02-05T07:38:48.079Z,1.67
2023-02-05T07:41:17.500Z,1.67
2023-02-05T07:43:45.441Z,1.69
2023-02-05T07:46:15.201Z,1.80
2023-02-05T07:48:43.265Z,1.76
2023-02-05T07:51:18.336Z,1.76
2023-02-05T07:53:46.627Z,1.86
2023-02-05T07:56:15.666Z,2.11
2023-02-05T07:58:44.087Z,2.28
2023-02-05T08:01:11.712Z,2.38
2023-02-05T08:03:39.541Z,2.78
2023-02-05T08:06:11.688Z,3.09
2023-02-05T08:08:39.254Z,3.18
2023-02-05T08:11:08.002Z,3.25
2023-02-05T08:13:35.555Z,3.88
2023-02-05T08:16:09.470Z,4.33
2023-02-05T08:18:37.196Z,4.43
2023-02-05T08:21:05.177Z,4.57
2023-02-05T08:23:33.394Z,4.37
2023-02-05T08:26:01.217Z,4.75
2023-02-05T08:28:29.349Z,4.68
2023-02-05T08:30:57.042Z,4.51
2023-02-05T08:33:25.197Z,4.22
2023-02-05T08:35:52.639Z,4.72
2023-02-05T08:38:20.316Z,4.46
2023-02-05T08:40:47.593Z,3.95
2023-02-05T08:43:15.266Z,3.88
2023-02-05T08:45:48.140Z,3.92
2023-02-05T08:48:15.957Z,3.73
2023-02-05T08:50:47.385Z,3.36
2023-02-05T08:53:15.029Z,3.13
2023-02-05T08:55:42.790Z,3.04
2023-02-05T08:58:10.452Z,2.79
2023-02-05T09:00:40.164Z,2.47
2023-02-05T09:03:08.886Z,2.31
2023-02-05T09:05:36.388Z,2.21
2023-02-05T09:08:04.119Z,2.05
2023-02-05T09:10:31.696Z,2.09
2023-02-05T09:12:59.274Z,2.09
2023-02-05T09:15:26.823Z,2.15
2023-02-05T09:17:54.422Z,2.26
2023-02-05T09:20:21.738Z,2.30
2023-02-05T09:22:50.490Z,2.33
2023-02-05T09:25:17.866Z,2.26
2023-02-05T09:27:45.535Z,2.23
2023-02-05T09:30:13.644Z,2.11
2023-02-05T09:32:41.272Z,2.21
2023-02-05T09:35:08.820Z,2.20
2023-02-05T09:37:36.408Z,2.04
2023-02-05T09:40:21.240Z,1.75
2023-02-05T09:43:34.769Z,1.46
2023-02-05T09:47:08.004Z,1.41
2023-02-05T09:49:44.965Z,1.25
2023-02-05T09:52:29.369Z,1.14
2023-02-05T09:55:05.077Z,0.94
2023-02-05T09:57:41.560Z,1.02
2023-02-05T10:00:27.667Z,1.05
2023-02-05T10:03:06.995Z,1.18
2023-02-05T10:06:17.550Z,1.35
2023-02-05T10:08:45.376Z,1.59
2023-02-05T10:12:00.375Z,2.13
2023-02-05T10:14:46.498Z,2.48
2023-02-05T10:17:46.753Z,2.87
2023-02-05T10:20:31.853Z,3.41
2023-02-05T10:23:25.262Z,3.20
2023-02-05T10:26:14.495Z,2.96
2023-02-05T10:29:22.174Z,3.27
2023-02-05T10:32:25.669Z,3.85
2023-02-05T10:35:12.997Z,4.91
2023-02-05T10:37:58.250Z,6.83
2023-02-05T10:40:32.776Z,8.34
2023-02-05T10:43:53.561Z,9.65
2023-02-05T10:46:21.447Z,10.15
2023-02-05T10:49:38.429Z,9.19
2023-02-05T10:52:11.884Z,8.28
2023-02-05T10:54:41.476Z,7.42
2023-02-05T10:57:19.708Z,7.48
2023-02-05T11:00:14.693Z,7.36
2023-02-05T11:02:50.832Z,7.68
2023-02-05T11:05:37.343Z,8.21
2023-02-05T11:08:25.696Z,9.46
2023-02-05T11:10:53.995Z,13.74
2023-02-05T11:13:22.875Z,13.35
2023-02-05T11:16:21.802Z,11.69
2023-02-05T11:19:00.577Z,10.62
2023-02-05T11:21:47.731Z,9.71
2023-02-05T11:24:28.851Z,8.44
2023-02-05T11:27:32.820Z,7.76
2023-02-05T11:30:58.780Z,6.78
2023-02-05T11:33:23.271Z,6.35
2023-02-05T11:35:53.764Z,6.09
2023-02-05T11:38:48.093Z,5.67
2023-02-05T11:41:30.980Z,5.41
2023-02-05T11:44:01.974Z,5.25
2023-02-05T11:46:44.558Z,5.22
2023-02-05T11:49:23.040Z,4.96
2023-02-05T11:51:56.520Z,4.67
2023-02-05T11:54:34.554Z,4.37
2023-02-05T11:57:20.196Z,4.26
2023-02-05T12:00:08.540Z,4.03
2023-02-05T12:02:39.417Z,4.48
2023-02-05T12:05:26.877Z,4.40
2023-02-05T12:08:11.173Z,4.51
2023-02-05T12:11:30.557Z,4.46
2023-02-05T12:14:20.687Z,4.42
2023-02-05T12:17:39.960Z,4.43
2023-02-05T12:20:38.922Z,4.59
2023-02-05T12:23:33.531Z,4.53
2023-02-05T12:26:37.249Z,4.01
2023-02-05T12:29:45.662Z,3.93
2023-02-05T12:32:31.752Z,3.62
2023-02-05T12:35:33.224Z,3.34
2023-02-05T12:38:39.427Z,2.94
2023-02-05T12:41:37.676Z,2.21
2023-02-05T12:44:57.628Z,2.04
2023-02-05T12:47:53.188Z,1.97
2023-02-05T12:50:35.679Z,1.99
2023-02-05T12:53:46.839Z,2.05
2023-02-05T12:56:48.092Z,2.24
2023-02-05T12:59:30.992Z,2.59
2023-02-05T13:02:15.247Z,3.20
2023-02-05T13:05:01.128Z,3.63
2023-02-05T13:07:45.589Z,3.83
2023-02-05T13:10:28.424Z,4.05
2023-02-05T13:13:05.628Z,4.04
2023-02-05T13:15:49.356Z,4.03
2023-02-05T13:18:27.781Z,4.28
2023-02-05T13:21:49.168Z,4.86
2023-02-05T13:25:00.781Z,7.37
2023-02-05T13:27:59.201Z,10.11
2023-02-05T13:30:37.115Z,11.47
2023-02-05T13:33:08.078Z,11.87
2023-02-05T13:35:50.414Z,11.12
2023-02-05T13:38:41.192Z,10.76
2023-02-05T13:41:27.100Z,10.34
2023-02-05T13:44:06.520Z,9.63
2023-02-05T13:46:40.204Z,8.89
2023-02-05T13:49:37.238Z,9.58
2023-02-05T13:52:27.414Z,10.17
2023-02-05T13:55:13.744Z,9.76
2023-02-05T13:58:22.372Z,9.86
2023-02-05T14:00:58.443Z,9.83
2023-02-05T14:03:35.230Z,9.17
2023-02-05T14:06:39.524Z,10.44
2023-02-05T14:09:33.997Z,11.84
2023-02-05T14:12:06.529Z,13.79
2023-02-05T14:14:37.484Z,15.11
2023-02-05T14:17:27.847Z,16.21
2023-02-05T14:20:01.249Z,16.71
2023-02-05T14:22:44.399Z,13.59
2023-02-05T14:25:38.203Z,15.94
2023-02-05T14:28:20.604Z,16.31
2023-02-05T14:30:59.134Z,16.48
2023-02-05T14:33:42.371Z,17.11
2023-02-05T14:36:19.927Z,17.70
2023-02-05T14:38:57.159Z,18.01
2023-02-05T14:41:42.031Z,18.22
2023-02-05T14:44:12.053Z,17.40
2023-02-05T14:46:52.676Z,13.64
2023-02-05T14:49:39.585Z,13.07
2023-02-05T14:52:27.411Z,11.95
2023-02-05T14:55:18.553Z,10.83
2023-02-05T14:58:24.347Z,10.03
2023-02-05T15:00:53.193Z,9.34
2023-02-05T15:03:38.567Z,8.60
2023-02-05T15:06:15.388Z,7.01
2023-02-05T15:08:52.364Z,6.23
2023-02-05T15:11:50.809Z,5.27
2023-02-05T15:14:35.381Z,5.08
2023-02-05T15:17:05.802Z,4.95
2023-02-05T15:19:54.487Z,4.66
2023-02-05T15:22:44.322Z,4.45
2023-02-05T15:25:26.243Z,4.19
2023-02-05T15:28:04.359Z,3.98
2023-02-05T15:31:22.464Z,3.73
2023-02-05T15:33:59.885Z,3.47
2023-02-05T15:36:43.223Z,3.25
2023-02-05T15:39:35.620Z,2.99
2023-02-05T15:42:06.842Z,2.94
2023-02-05T15:44:36.067Z,2.79
2023-02-05T15:47:22.098Z,2.54
2023-02-05T15:50:00.909Z,2.52
2023-02-05T15:52:32.768Z,2.47
2023-02-05T15:55:16.997Z,2.34
2023-02-05T15:57:45.536Z,2.19
2023-02-05T16:00:29.487Z,2.08
2023-02-05T16:03:02.653Z,1.91
2023-02-05T16:05:31.972Z,1.84
2023-02-05T16:08:02.045Z,1.88
2023-02-05T16:10:35.046Z,1.84
2023-02-05T16:13:23.618Z,1.96
2023-02-05T16:16:15.344Z,1.97
2023-02-05T16:18:57.709Z,1.97
2023-02-05T16:21:45.740Z,1.97
2023-02-05T16:24:46.534Z,1.89
2023-02-05T16:27:43.345Z,1.81
2023-02-05T16:30:27.822Z,1.77
2023-02-05T16:32:58.738Z,1.71
2023-02-05T16:35:39.505Z,1.68
2023-02-05T16:38:15.410Z,1.67
2023-02-05T16:40:48.826Z,1.62
2023-02-05T16:43:37.384Z,1.48
2023-02-05T16:46:07.809Z,1.48
2023-02-05T16:48:41.822Z,1.45
2023-02-05T16:51:27.336Z,1.31
2023-02-05T16:53:54.634Z,1.31
2023-02-05T16:56:27.201Z,1.22
2023-02-05T16:59:00.671Z,1.21
2023-02-05T17:01:44.934Z,1.21
2023-02-05T17:04:34.935Z,1.28
2023-02-05T17:07:07.141Z,1.25
2023-02-05T17:09:39.253Z,1.20
2023-02-05T17:12:38.506Z,1.17
2023-02-05T17:15:37.076Z,1.15
2023-02-05T17:18:30.180Z,1.19
2023-02-05T17:21:22.837Z,1.22
2023-02-05T17:23:52.762Z,1.25
2023-02-05T17:26:21.147Z,1.28
2023-02-05T17:29:02.953Z,1.18
2023-02-05T17:31:35.473Z,1.24
2023-02-05T17:34:03.824Z,1.21
2023-02-05T17:36:31.125Z,1.19
2023-02-05T17:38:58.945Z,1.20
2023-02-05T17:41:56.017Z,1.16
2023-02-05T17:44:23.627Z,1.16
2023-02-05T17:46:51.070Z,1.16
2023-02-05T17:49:18.661Z,1.13
2023-02-05T17:51:46.268Z,1.06
2023-02-05T17:54:18.333Z,0.99
2023-02-05T17:56:48.346Z,0.97
2023-02-05T17:59:22.462Z,0.89
2023-02-05T18:01:51.881Z,0.95
2023-02-05T18:04:19.901Z,0.90
2023-02-05T18:06:49.899Z,0.83
2023-02-05T18:09:18.853Z,0.88
2023-02-05T18:11:46.167Z,0.74
2023-02-05T18:14:13.934Z,0.84
2023-02-05T18:16:41.353Z,0.85
2023-02-05T18:19:09.210Z,0.93
2023-02-05T18:21:36.730Z,0.94
2023-02-05T18:24:04.635Z,0.89
2023-02-05T18:26:32.389Z,0.80
2023-02-05T18:29:00.025Z,0.72
2023-02-05T18:31:27.496Z,0.77
2023-02-05T18:33:55.236Z,0.71
2023-02-05T18:36:23.152Z,0.76
2023-02-05T18:38:50.799Z,0.80
2023-02-05T18:41:25.947Z,0.77
2023-02-05T18:43:55.772Z,0.82
2023-02-05T18:46:24.331Z,0.80
2023-02-05T18:48:52.817Z,0.73
2023-02-05T18:51:23.214Z,0.75
2023-02-05T18:53:51.012Z,0.74
2023-02-05T18:56:26.216Z,0.60
2023-02-05T18:59:02.532Z,0.60
2023-02-05T19:01:31.912Z,0.59
2023-02-05T19:04:10.243Z,0.58
2023-02-05T19:06:41.735Z,0.58
2023-02-05T19:09:10.466Z,0.48
2023-02-05T19:11:41.513Z,0.45
2023-02-05T19:14:13.222Z,0.46
2023-02-05T19:16:42.161Z,0.48
2023-02-05T19:19:14.435Z,0.45
2023-02-05T19:21:44.080Z,0.48
2023-02-05T19:24:14.316Z,0.47
2023-02-05T19:26:45.428Z,0.48
2023-02-05T19:29:17.004Z,0.46
2023-02-05T19:31:46.261Z,0.48
2023-02-05T19:34:15.558Z,0.41
2023-02-05T19:36:43.871Z,0.36
2023-02-05T19:39:14.538Z,0.24
2023-02-05T19:41:45.728Z,0.22
2023-02-05T19:44:13.675Z,0.12
2023-02-05T19:46:46.778Z,-0.01
2023-02-05T19:49:19.143Z,0.07
2023-02-05T19:51:49.552Z,0.07
2023-02-05T19:54:21.183Z,-0.04
2023-02-05T19:56:49.429Z,0.06
2023-02-05T19:59:17.435Z,0.11
2023-02-05T20:01:46.050Z,0.11
2023-02-05T20:04:18.239Z,0.06
2023-02-05T20:06:47.360Z,0.09
2023-02-05T20:09:17.439Z,0.11
2023-02-05T20:11:49.219Z,0.16
2023-02-05T20:14:18.404Z,0.18
2023-02-05T20:16:46.344Z,0.22
2023-02-05T20:19:16.918Z,0.18
2023-02-05T20:21:44.893Z,0.20
2023-02-05T20:24:13.667Z,0.26
2023-02-05T20:26:41.277Z,0.33
2023-02-05T20:29:29.164Z,0.38
2023-02-05T20:31:58.396Z,0.33
2023-02-05T20:34:30.927Z,0.32
2023-02-05T20:37:04.310Z,0.29
2023-02-05T20:39:35.301Z,0.32
2023-02-05T20:42:03.647Z,0.27
2023-02-05T20:44:36.276Z,0.25
2023-02-05T20:47:11.052Z,0.19
2023-02-05T20:49:41.509Z,0.18
2023-02-05T20:52:10.533Z,0.12
2023-02-05T20:54:38.277Z,0.07
2023-02-05T20:57:05.749Z,0.08
2023-02-05T20:59:34.511Z,0.07
2023-02-05T21:02:02.899Z,0.03
2023-02-05T21:04:31.034Z,-0.01
2023-02-05T21:06:58.786Z,-0.05
2023-02-05T21:09:26.582Z,-0.06
2023-02-05T21:11:55.684Z,-0.11
2023-02-05T21:14:24.190Z,-0.15
2023-02-05T21:16:52.072Z,-0.24
2023-02-05T21:19:19.871Z,-0.26
2023-02-05T21:21:47.266Z,-0.31
2023-02-05T21:24:16.434Z,-0.38
2023-02-05T21:26:49.439Z,-0.44
2023-02-05T21:29:20.852Z,-0.52
2023-02-05T21:31:54.264Z,-0.66
2023-02-05T21:34:26.434Z,-0.77
2023-02-05T21:36:55.230Z,-0.83
2023-02-05T21:39:24.188Z,-0.88
2023-02-05T21:41:53.417Z,-0.89
2023-02-05T21:44:21.360Z,-0.92
2023-02-05T21:46:48.728Z,-0.88
2023-02-05T21:49:16.381Z,-0.86
2023-02-05T21:51:43.696Z,-0.83
2023-02-05T21:54:12.241Z,-0.88
2023-02-05T21:56:42.787Z,-0.86
2023-02-05T21:59:12.867Z,-0.89
2023-02-05T22:01:41.799Z,-0.87
2023-02-05T22:04:15.094Z,-0.91
2023-02-05T22:06:43.117Z,-0.86
2023-02-05T22:09:14.322Z,-0.79
2023-02-05T22:11:42.474Z,-0.72
2023-02-05T22:14:11.201Z,-0.73
2023-02-05T22:16:39.258Z,-0.73
2023-02-05T22:19:07.694Z,-0.80
2023-02-05T22:21:38.915Z,-0.82
2023-02-05T22:24:08.498Z,-0.90
2023-02-05T22:26:39.146Z,-0.87
2023-02-05T22:29:11.299Z,-0.81
2023-02-05T22:31:38.674Z,-0.80
2023-02-05T22:34:06.277Z,-0.79
2023-02-05T22:36:35.410Z,-0.72
2023-02-05T22:39:05.782Z,-0.78
2023-02-05T22:41:38.950Z,-0.82
2023-02-05T22:44:08.925Z,-0.89
2023-02-05T22:46:41.945Z,-0.92
2023-02-05T22:49:15.405Z,-0.93
2023-02-05T22:51:43.908Z,-1.04
2023-02-05T22:54:13.822Z,-1.04
2023-02-05T22:56:41.270Z,-1.04
2023-02-05T22:59:09.039Z,-1.05
2023-02-05T23:01:39.265Z,-1.13
2023-02-05T23:04:09.458Z,-1.17
2023-02-05T23:06:43.151Z,-1.21
2023-02-05T23:09:16.006Z,-1.23
2023-02-05T23:11:44.376Z,-1.32
2023-02-05T23:14:14.996Z,-1.33
2023-02-05T23:16:44.806Z,-1.38
2023-02-05T23:19:18.511Z,-1.40
2023-02-05T23:21:47.222Z,-1.42
2023-02-05T23:24:15.877Z,-1.48
2023-02-05T23:26:47.113Z,-1.57
2023-02-05T23:29:16.748Z,-1.75
2023-02-05T23:31:44.642Z,-1.80
2023-02-05T23:34:13.431Z,-1.76
2023-02-05T23:36:41.219Z,-1.75
2023-02-05T23:39:09.249Z,-1.75
2023-02-05T23:41:36.898Z,-1.78
2023-02-05T23:44:18.307Z,-1.80
2023-02-05T23:46:48.137Z,-1.83
2023-02-05T23:49:17.408Z,-1.84
2023-02-05T23:51:44.688Z,-1.89
2023-02-05T23:54:12.722Z,-1.92
2023-02-05T23:56:41.053Z,-1.92
2023-02-05T23:59:11.010Z,-1.96
